METAR AND TAF INFORMATION
METAR FOR FMMI
ADDS - METARS form results

(1209 UTC 09 July 2020)
Data provider http://aviationweather.gov/metar/data/
 
METAR text: FMMI 091200Z 15013KT 120V200 9999 SCT025 18/09 Q1024 NOSIG
Conditions at: FMMI (ANTANANARIVO/IVA, KM) observed 1200 UTC 09 July 2020
Temperature: 18.0°C (64°F)
Dewpoint: 9.0°C (48°F) [RH = 56%]
Pressure (altimeter): 30.24 inches Hg (1024.0 mb)
Winds: from the SSE (150 degrees) at 15 MPH (13 knots; 6.7 m/s)
Visibility: 6 or more miles (10+ km)
Ceiling: at least 12,000 feet AGL
Clouds: scattered clouds at 2500 feet AGL
Weather: no significant weather observed at this time

METAR text: FMMI 091130Z 15012KT 110V180 9999 SCT025 19/08 Q1024 NOSIG
Conditions at: FMMI (ANTANANARIVO/IVA, KM) observed 1130 UTC 09 July 2020
Temperature: 19.0°C (66°F)
Dewpoint: 8.0°C (46°F) [RH = 49%]
Pressure (altimeter): 30.24 inches Hg (1024.0 mb)
Winds: from the SSE (150 degrees) at 14 MPH (12 knots; 6.2 m/s)
Visibility: 6 or more miles (10+ km)
Ceiling: at least 12,000 feet AGL
Clouds: scattered clouds at 2500 feet AGL
Weather: no significant weather observed at this time

Forecast for: FMMI (ANTANANARIVO/IVA, KM)
Text: TAF FMMI 091100Z 0912/1018 14010KT 9999 FEW017 BKN020
Forecast period: 1200 UTC 09 July 2020 to 1800 UTC 10 July 2020
Forecast type: FROM: standard forecast or significant change
Winds: from the SE (140 degrees) at 12 MPH (10 knots; 5.1 m/s)
Visibility: 6 or more miles 10+ km)
Ceiling: 2000 feet AGL
Clouds: few clouds at 1700 feet AGL
broken clouds at 2000 feet AGL
Weather: no significant weather forecast for this period

 AIRPORT MAP

 RUNWAY INFORMATION
Runway 11 Runway length 10171 ft Runway width 148 ft
Runway elevation 4197 ft Runway displaced threshold 0 ft Runway heading 99
Runway 29 Runway length 10171 ft Runway width 148 ft
Runway elevation 4117 ft Runway displaced threshold 0 ft Runway heading 279

 AIRPORT FREQUENCIES
Type TWR Name TWR Frequency 120.1 MHZ

 AIRPORT NEAR NAVIGATION AIDS
Type VOR-DME Name Ivato Frequency 114500 KHZ